sensor_id;sensor_type;location;lat;lon;timestamp;temperature;humidity
21047;DHT22;10682;50.874;3.656;2022-11-20T00:01:26;4.80;99.90
21047;DHT22;10682;50.874;3.656;2022-11-20T00:03:55;4.80;99.90
21047;DHT22;10682;50.874;3.656;2022-11-20T00:06:23;4.90;99.90
21047;DHT22;10682;50.874;3.656;2022-11-20T00:08:54;4.80;99.90
21047;DHT22;10682;50.874;3.656;2022-11-20T00:11:25;4.80;99.90
21047;DHT22;10682;50.874;3.656;2022-11-20T00:13:55;4.80;99.90
21047;DHT22;10682;50.874;3.656;2022-11-20T00:16:25;4.90;99.90
21047;DHT22;10682;50.874;3.656;2022-11-20T00:18:54;4.90;99.90
21047;DHT22;10682;50.874;3.656;2022-11-20T00:21:23;4.80;99.90
21047;DHT22;10682;50.874;3.656;2022-11-20T00:23:54;4.80;99.90
21047;DHT22;10682;50.874;3.656;2022-11-20T00:26:24;4.70;99.90
21047;DHT22;10682;50.874;3.656;2022-11-20T00:28:56;4.70;99.90
21047;DHT22;10682;50.874;3.656;2022-11-20T00:31:24;4.70;99.90
21047;DHT22;10682;50.874;3.656;2022-11-20T00:33:52;4.70;99.90
21047;DHT22;10682;50.874;3.656;2022-11-20T00:36:21;4.70;99.90
21047;DHT22;10682;50.874;3.656;2022-11-20T00:38:53;4.70;99.90
21047;DHT22;10682;50.874;3.656;2022-11-20T00:41:21;4.70;99.90
21047;DHT22;10682;50.874;3.656;2022-11-20T00:43:50;4.70;99.90
21047;DHT22;10682;50.874;3.656;2022-11-20T00:46:21;4.80;99.90
21047;DHT22;10682;50.874;3.656;2022-11-20T00:48:49;4.80;99.90
21047;DHT22;10682;50.874;3.656;2022-11-20T00:51:18;4.80;99.90
21047;DHT22;10682;50.874;3.656;2022-11-20T00:53:47;4.80;99.90
21047;DHT22;10682;50.874;3.656;2022-11-20T00:56:16;4.80;99.90
21047;DHT22;10682;50.874;3.656;2022-11-20T00:58:46;4.80;99.90
21047;DHT22;10682;50.874;3.656;2022-11-20T01:01:20;4.80;99.90
21047;DHT22;10682;50.874;3.656;2022-11-20T01:03:53;4.90;99.90
21047;DHT22;10682;50.874;3.656;2022-11-20T01:06:24;4.90;99.90
21047;DHT22;10682;50.874;3.656;2022-11-20T01:08:55;4.90;99.90
21047;DHT22;10682;50.874;3.656;2022-11-20T01:11:29;4.90;99.90
21047;DHT22;10682;50.874;3.656;2022-11-20T01:13:59;4.80;99.90
21047;DHT22;10682;50.874;3.656;2022-11-20T01:16:30;4.80;99.90
21047;DHT22;10682;50.874;3.656;2022-11-20T01:19:01;4.80;99.90
21047;DHT22;10682;50.874;3.656;2022-11-20T01:21:32;4.80;99.90
21047;DHT22;10682;50.874;3.656;2022-11-20T01:24:02;4.80;99.90
21047;DHT22;10682;50.874;3.656;2022-11-20T01:26:32;4.90;99.90
21047;DHT22;10682;50.874;3.656;2022-11-20T01:29:01;4.90;99.90
21047;DHT22;10682;50.874;3.656;2022-11-20T01:31:31;4.90;99.90
21047;DHT22;10682;50.874;3.656;2022-11-20T01:34:03;4.90;99.90
21047;DHT22;10682;50.874;3.656;2022-11-20T01:36:33;4.90;99.90
21047;DHT22;10682;50.874;3.656;2022-11-20T01:39:05;4.90;99.90
21047;DHT22;10682;50.874;3.656;2022-11-20T01:41:34;4.90;99.90
21047;DHT22;10682;50.874;3.656;2022-11-20T01:44:22;4.80;99.90
21047;DHT22;10682;50.874;3.656;2022-11-20T01:47:12;4.80;99.90
21047;DHT22;10682;50.874;3.656;2022-11-20T01:49:47;4.70;99.90
21047;DHT22;10682;50.874;3.656;2022-11-20T01:52:21;4.70;99.90
21047;DHT22;10682;50.874;3.656;2022-11-20T01:55:09;4.70;99.90
21047;DHT22;10682;50.874;3.656;2022-11-20T01:57:40;4.80;99.90
21047;DHT22;10682;50.874;3.656;2022-11-20T02:00:13;4.90;99.90
21047;DHT22;10682;50.874;3.656;2022-11-20T02:02:48;4.90;99.90
21047;DHT22;10682;50.874;3.656;2022-11-20T02:05:58;4.90;99.90
21047;DHT22;10682;50.874;3.656;2022-11-20T02:08:45;4.90;99.90
21047;DHT22;10682;50.874;3.656;2022-11-20T02:11:12;4.90;99.90
21047;DHT22;10682;50.874;3.656;2022-11-20T02:13:40;4.90;99.90
21047;DHT22;10682;50.874;3.656;2022-11-20T02:16:28;4.90;99.90
21047;DHT22;10682;50.874;3.656;2022-11-20T02:19:05;4.90;99.90
21047;DHT22;10682;50.874;3.656;2022-11-20T02:24:38;4.80;99.90
21047;DHT22;10682;50.874;3.656;2022-11-20T02:27:09;4.90;99.90
21047;DHT22;10682;50.874;3.656;2022-11-20T02:29:40;4.90;99.90
21047;DHT22;10682;50.874;3.656;2022-11-20T02:32:23;4.90;99.90
21047;DHT22;10682;50.874;3.656;2022-11-20T02:34:53;5.00;99.90
21047;DHT22;10682;50.874;3.656;2022-11-20T02:37:21;5.00;99.90
21047;DHT22;10682;50.874;3.656;2022-11-20T02:39:50;5.00;99.90
21047;DHT22;10682;50.874;3.656;2022-11-20T02:42:18;5.00;99.90
21047;DHT22;10682;50.874;3.656;2022-11-20T02:44:45;5.00;99.90
21047;DHT22;10682;50.874;3.656;2022-11-20T02:47:12;5.00;99.90
21047;DHT22;10682;50.874;3.656;2022-11-20T02:49:39;5.00;99.90
21047;DHT22;10682;50.874;3.656;2022-11-20T02:52:06;4.90;99.90
21047;DHT22;10682;50.874;3.656;2022-11-20T02:54:33;4.90;99.90
21047;DHT22;10682;50.874;3.656;2022-11-20T02:57:00;4.90;99.90
21047;DHT22;10682;50.874;3.656;2022-11-20T02:59:27;4.90;99.90
21047;DHT22;10682;50.874;3.656;2022-11-20T03:01:54;4.90;99.90
21047;DHT22;10682;50.874;3.656;2022-11-20T03:04:21;5.00;99.90
21047;DHT22;10682;50.874;3.656;2022-11-20T03:06:48;5.00;99.90
21047;DHT22;10682;50.874;3.656;2022-11-20T03:09:15;5.10;99.90
21047;DHT22;10682;50.874;3.656;2022-11-20T03:11:42;5.00;99.90
21047;DHT22;10682;50.874;3.656;2022-11-20T03:14:09;5.10;99.90
21047;DHT22;10682;50.874;3.656;2022-11-20T03:16:36;5.10;99.90
21047;DHT22;10682;50.874;3.656;2022-11-20T03:19:03;5.10;99.90
21047;DHT22;10682;50.874;3.656;2022-11-20T03:21:30;5.10;99.90
21047;DHT22;10682;50.874;3.656;2022-11-20T03:23:57;5.10;99.90
21047;DHT22;10682;50.874;3.656;2022-11-20T03:26:25;5.10;99.90
21047;DHT22;10682;50.874;3.656;2022-11-20T03:28:56;5.10;99.90
21047;DHT22;10682;50.874;3.656;2022-11-20T03:31:27;5.10;99.90
21047;DHT22;10682;50.874;3.656;2022-11-20T03:33:57;5.10;99.90
21047;DHT22;10682;50.874;3.656;2022-11-20T03:36:26;5.10;99.90
21047;DHT22;10682;50.874;3.656;2022-11-20T03:38:55;5.10;99.90
21047;DHT22;10682;50.874;3.656;2022-11-20T03:41:30;5.20;99.90
21047;DHT22;10682;50.874;3.656;2022-11-20T03:44:00;5.20;99.90
21047;DHT22;10682;50.874;3.656;2022-11-20T03:46:29;5.30;99.90
21047;DHT22;10682;50.874;3.656;2022-11-20T03:48:57;5.20;99.90
21047;DHT22;10682;50.874;3.656;2022-11-20T03:51:31;5.20;99.90
21047;DHT22;10682;50.874;3.656;2022-11-20T03:54:03;5.20;99.90
21047;DHT22;10682;50.874;3.656;2022-11-20T03:56:34;5.30;99.90
21047;DHT22;10682;50.874;3.656;2022-11-20T03:59:03;5.30;99.90
21047;DHT22;10682;50.874;3.656;2022-11-20T04:01:35;5.40;99.90
21047;DHT22;10682;50.874;3.656;2022-11-20T04:04:04;5.40;99.90
21047;DHT22;10682;50.874;3.656;2022-11-20T04:06:36;5.30;99.90
21047;DHT22;10682;50.874;3.656;2022-11-20T04:09:04;5.20;99.90
21047;DHT22;10682;50.874;3.656;2022-11-20T04:11:36;5.20;99.90
21047;DHT22;10682;50.874;3.656;2022-11-20T04:14:15;5.20;99.90
21047;DHT22;10682;50.874;3.656;2022-11-20T04:16:43;5.10;99.90
21047;DHT22;10682;50.874;3.656;2022-11-20T04:19:12;5.10;99.90
21047;DHT22;10682;50.874;3.656;2022-11-20T04:21:42;5.10;99.90
21047;DHT22;10682;50.874;3.656;2022-11-20T04:24:10;5.20;99.90
21047;DHT22;10682;50.874;3.656;2022-11-20T04:26:37;5.10;99.90
21047;DHT22;10682;50.874;3.656;2022-11-20T04:29:04;5.10;99.90
21047;DHT22;10682;50.874;3.656;2022-11-20T04:31:34;5.10;99.90
21047;DHT22;10682;50.874;3.656;2022-11-20T04:34:06;5.10;99.90
21047;DHT22;10682;50.874;3.656;2022-11-20T04:36:34;5.10;99.90
21047;DHT22;10682;50.874;3.656;2022-11-20T04:39:04;5.10;99.90
21047;DHT22;10682;50.874;3.656;2022-11-20T04:41:33;5.10;99.90
21047;DHT22;10682;50.874;3.656;2022-11-20T04:44:03;5.20;99.90
21047;DHT22;10682;50.874;3.656;2022-11-20T04:46:33;5.20;99.90
21047;DHT22;10682;50.874;3.656;2022-11-20T04:49:01;5.20;99.90
21047;DHT22;10682;50.874;3.656;2022-11-20T04:51:29;5.20;99.90
21047;DHT22;10682;50.874;3.656;2022-11-20T04:53:56;5.20;99.90
21047;DHT22;10682;50.874;3.656;2022-11-20T04:56:23;5.10;99.90
21047;DHT22;10682;50.874;3.656;2022-11-20T04:58:50;5.10;99.90
21047;DHT22;10682;50.874;3.656;2022-11-20T05:01:22;5.00;99.90
21047;DHT22;10682;50.874;3.656;2022-11-20T05:03:50;5.00;99.90
21047;DHT22;10682;50.874;3.656;2022-11-20T05:06:19;4.90;99.90
21047;DHT22;10682;50.874;3.656;2022-11-20T05:08:47;5.00;99.90
21047;DHT22;10682;50.874;3.656;2022-11-20T05:11:17;5.00;99.90
21047;DHT22;10682;50.874;3.656;2022-11-20T05:13:46;5.00;99.90
21047;DHT22;10682;50.874;3.656;2022-11-20T05:16:16;5.00;99.90
21047;DHT22;10682;50.874;3.656;2022-11-20T05:18:45;5.00;99.90
21047;DHT22;10682;50.874;3.656;2022-11-20T05:21:14;4.90;99.90
21047;DHT22;10682;50.874;3.656;2022-11-20T05:23:42;4.90;99.90
21047;DHT22;10682;50.874;3.656;2022-11-20T05:26:21;4.90;99.90
21047;DHT22;10682;50.874;3.656;2022-11-20T05:28:49;4.90;99.90
21047;DHT22;10682;50.874;3.656;2022-11-20T05:31:19;4.90;99.90
21047;DHT22;10682;50.874;3.656;2022-11-20T05:33:53;5.00;99.90
21047;DHT22;10682;50.874;3.656;2022-11-20T05:36:21;5.00;99.90
21047;DHT22;10682;50.874;3.656;2022-11-20T05:38:48;5.00;99.90
21047;DHT22;10682;50.874;3.656;2022-11-20T05:41:19;5.00;99.90
21047;DHT22;10682;50.874;3.656;2022-11-20T05:43:48;5.10;99.90
21047;DHT22;10682;50.874;3.656;2022-11-20T05:46:18;5.10;99.90
21047;DHT22;10682;50.874;3.656;2022-11-20T05:48:53;5.20;99.90
21047;DHT22;10682;50.874;3.656;2022-11-20T05:51:20;5.20;99.90
21047;DHT22;10682;50.874;3.656;2022-11-20T05:53:47;5.30;99.90
21047;DHT22;10682;50.874;3.656;2022-11-20T05:56:17;5.40;99.90
21047;DHT22;10682;50.874;3.656;2022-11-20T05:58:46;5.40;99.90
21047;DHT22;10682;50.874;3.656;2022-11-20T06:01:19;5.40;99.90
21047;DHT22;10682;50.874;3.656;2022-11-20T06:03:48;5.40;99.90
21047;DHT22;10682;50.874;3.656;2022-11-20T06:06:18;5.40;99.90
21047;DHT22;10682;50.874;3.656;2022-11-20T06:08:46;5.40;99.90
21047;DHT22;10682;50.874;3.656;2022-11-20T06:11:15;5.50;99.90
21047;DHT22;10682;50.874;3.656;2022-11-20T06:13:43;5.50;99.90
21047;DHT22;10682;50.874;3.656;2022-11-20T06:16:11;5.50;99.90
21047;DHT22;10682;50.874;3.656;2022-11-20T06:18:40;5.50;99.90
21047;DHT22;10682;50.874;3.656;2022-11-20T06:21:14;5.40;99.90
21047;DHT22;10682;50.874;3.656;2022-11-20T06:23:42;5.50;99.90
21047;DHT22;10682;50.874;3.656;2022-11-20T06:26:17;5.50;99.90
21047;DHT22;10682;50.874;3.656;2022-11-20T06:28:49;5.50;99.90
21047;DHT22;10682;50.874;3.656;2022-11-20T06:31:19;5.50;99.90
21047;DHT22;10682;50.874;3.656;2022-11-20T06:33:48;5.40;99.90
21047;DHT22;10682;50.874;3.656;2022-11-20T06:36:17;5.40;99.90
21047;DHT22;10682;50.874;3.656;2022-11-20T06:38:46;5.50;99.90
21047;DHT22;10682;50.874;3.656;2022-11-20T06:41:18;5.50;99.90
21047;DHT22;10682;50.874;3.656;2022-11-20T06:43:46;5.60;99.90
21047;DHT22;10682;50.874;3.656;2022-11-20T06:46:14;5.60;99.90
21047;DHT22;10682;50.874;3.656;2022-11-20T06:48:44;5.60;99.90
21047;DHT22;10682;50.874;3.656;2022-11-20T06:51:12;5.70;99.90
21047;DHT22;10682;50.874;3.656;2022-11-20T06:53:39;5.60;99.90
21047;DHT22;10682;50.874;3.656;2022-11-20T06:56:07;5.60;99.90
21047;DHT22;10682;50.874;3.656;2022-11-20T06:58:35;5.70;99.90
21047;DHT22;10682;50.874;3.656;2022-11-20T07:01:05;5.70;99.90
21047;DHT22;10682;50.874;3.656;2022-11-20T07:03:34;5.80;99.90
21047;DHT22;10682;50.874;3.656;2022-11-20T07:06:02;5.80;99.90
21047;DHT22;10682;50.874;3.656;2022-11-20T07:08:29;5.80;99.90
21047;DHT22;10682;50.874;3.656;2022-11-20T07:10:58;5.80;99.90
21047;DHT22;10682;50.874;3.656;2022-11-20T07:13:31;5.90;99.90
21047;DHT22;10682;50.874;3.656;2022-11-20T07:16:00;5.90;99.90
21047;DHT22;10682;50.874;3.656;2022-11-20T07:18:29;6.00;99.90
21047;DHT22;10682;50.874;3.656;2022-11-20T07:20:59;6.00;99.90
21047;DHT22;10682;50.874;3.656;2022-11-20T07:23:27;6.00;99.90
21047;DHT22;10682;50.874;3.656;2022-11-20T07:25:54;6.00;99.90
21047;DHT22;10682;50.874;3.656;2022-11-20T07:28:21;6.00;99.90
21047;DHT22;10682;50.874;3.656;2022-11-20T07:30:52;6.00;99.90
21047;DHT22;10682;50.874;3.656;2022-11-20T07:33:19;6.10;99.90
21047;DHT22;10682;50.874;3.656;2022-11-20T07:35:47;6.10;99.90
21047;DHT22;10682;50.874;3.656;2022-11-20T07:38:13;6.20;99.90
21047;DHT22;10682;50.874;3.656;2022-11-20T07:40:43;6.20;99.90
21047;DHT22;10682;50.874;3.656;2022-11-20T07:43:10;6.20;99.90
21047;DHT22;10682;50.874;3.656;2022-11-20T07:45:37;6.20;99.90
21047;DHT22;10682;50.874;3.656;2022-11-20T07:48:07;6.30;99.90
21047;DHT22;10682;50.874;3.656;2022-11-20T07:50:34;6.30;99.90
21047;DHT22;10682;50.874;3.656;2022-11-20T07:53:03;6.30;99.90
21047;DHT22;10682;50.874;3.656;2022-11-20T07:55:31;6.20;99.90
21047;DHT22;10682;50.874;3.656;2022-11-20T07:57:58;6.20;99.90
21047;DHT22;10682;50.874;3.656;2022-11-20T08:00:26;6.20;99.90
21047;DHT22;10682;50.874;3.656;2022-11-20T08:02:54;6.20;99.90
21047;DHT22;10682;50.874;3.656;2022-11-20T08:05:21;6.20;99.90
21047;DHT22;10682;50.874;3.656;2022-11-20T08:07:48;6.30;99.90
21047;DHT22;10682;50.874;3.656;2022-11-20T08:10:15;6.30;99.90
21047;DHT22;10682;50.874;3.656;2022-11-20T08:12:47;6.30;99.90
21047;DHT22;10682;50.874;3.656;2022-11-20T08:15:34;6.30;99.90
21047;DHT22;10682;50.874;3.656;2022-11-20T08:18:04;6.30;99.90
21047;DHT22;10682;50.874;3.656;2022-11-20T08:20:55;6.40;99.90
21047;DHT22;10682;50.874;3.656;2022-11-20T08:23:22;6.40;99.90
21047;DHT22;10682;50.874;3.656;2022-11-20T08:25:50;6.50;99.90
21047;DHT22;10682;50.874;3.656;2022-11-20T08:28:18;6.50;99.90
21047;DHT22;10682;50.874;3.656;2022-11-20T08:30:49;6.60;99.90
21047;DHT22;10682;50.874;3.656;2022-11-20T08:33:17;6.60;99.90
21047;DHT22;10682;50.874;3.656;2022-11-20T08:35:45;6.60;99.90
21047;DHT22;10682;50.874;3.656;2022-11-20T08:38:12;6.60;99.90
21047;DHT22;10682;50.874;3.656;2022-11-20T08:40:39;6.60;99.90
21047;DHT22;10682;50.874;3.656;2022-11-20T08:43:06;6.70;99.90
21047;DHT22;10682;50.874;3.656;2022-11-20T08:45:33;6.70;99.90
21047;DHT22;10682;50.874;3.656;2022-11-20T08:48:04;6.70;99.90
21047;DHT22;10682;50.874;3.656;2022-11-20T08:50:33;6.80;99.90
21047;DHT22;10682;50.874;3.656;2022-11-20T08:53:06;6.80;99.90
21047;DHT22;10682;50.874;3.656;2022-11-20T08:55:33;6.90;99.90
21047;DHT22;10682;50.874;3.656;2022-11-20T08:58:06;7.00;99.90
21047;DHT22;10682;50.874;3.656;2022-11-20T09:00:34;7.00;99.90
21047;DHT22;10682;50.874;3.656;2022-11-20T09:03:01;7.10;99.90
21047;DHT22;10682;50.874;3.656;2022-11-20T09:05:28;7.20;99.90
21047;DHT22;10682;50.874;3.656;2022-11-20T09:07:59;7.20;99.90
21047;DHT22;10682;50.874;3.656;2022-11-20T09:10:27;7.20;99.90
21047;DHT22;10682;50.874;3.656;2022-11-20T09:12:54;7.20;99.90
21047;DHT22;10682;50.874;3.656;2022-11-20T09:15:23;7.20;99.90
21047;DHT22;10682;50.874;3.656;2022-11-20T09:17:54;7.20;99.90
21047;DHT22;10682;50.874;3.656;2022-11-20T09:20:22;7.20;99.90
21047;DHT22;10682;50.874;3.656;2022-11-20T09:22:50;7.30;99.90
21047;DHT22;10682;50.874;3.656;2022-11-20T09:25:17;7.30;99.90
21047;DHT22;10682;50.874;3.656;2022-11-20T09:27:44;7.40;99.90
21047;DHT22;10682;50.874;3.656;2022-11-20T09:30:14;7.40;99.90
21047;DHT22;10682;50.874;3.656;2022-11-20T09:32:42;7.40;99.90
21047;DHT22;10682;50.874;3.656;2022-11-20T09:35:10;7.50;99.90
21047;DHT22;10682;50.874;3.656;2022-11-20T09:37:37;7.60;99.90
21047;DHT22;10682;50.874;3.656;2022-11-20T09:40:05;7.60;99.90
21047;DHT22;10682;50.874;3.656;2022-11-20T09:46:04;7.70;99.90
21047;DHT22;10682;50.874;3.656;2022-11-20T09:49:44;7.80;99.90
21047;DHT22;10682;50.874;3.656;2022-11-20T09:52:25;7.90;99.90
21047;DHT22;10682;50.874;3.656;2022-11-20T09:54:57;7.90;99.90
21047;DHT22;10682;50.874;3.656;2022-11-20T09:57:36;8.00;99.90
21047;DHT22;10682;50.874;3.656;2022-11-20T10:00:10;8.00;99.90
21047;DHT22;10682;50.874;3.656;2022-11-20T10:03:10;8.00;99.90
21047;DHT22;10682;50.874;3.656;2022-11-20T10:05:54;8.00;99.90
21047;DHT22;10682;50.874;3.656;2022-11-20T10:08:22;8.10;99.90
21047;DHT22;10682;50.874;3.656;2022-11-20T10:14:37;8.10;99.90
21047;DHT22;10682;50.874;3.656;2022-11-20T10:17:42;8.20;99.90
21047;DHT22;10682;50.874;3.656;2022-11-20T10:20:23;8.40;99.90
21047;DHT22;10682;50.874;3.656;2022-11-20T10:23:14;8.40;99.90
21047;DHT22;10682;50.874;3.656;2022-11-20T10:26:03;8.40;99.90
21047;DHT22;10682;50.874;3.656;2022-11-20T10:28:56;8.40;99.90
21047;DHT22;10682;50.874;3.656;2022-11-20T10:31:37;8.50;99.90
21047;DHT22;10682;50.874;3.656;2022-11-20T10:37:25;8.50;99.90
21047;DHT22;10682;50.874;3.656;2022-11-20T10:40:11;8.60;99.90
21047;DHT22;10682;50.874;3.656;2022-11-20T10:42:57;8.60;99.90
21047;DHT22;10682;50.874;3.656;2022-11-20T10:48:12;8.60;99.90
21047;DHT22;10682;50.874;3.656;2022-11-20T10:55:12;8.60;99.90
21047;DHT22;10682;50.874;3.656;2022-11-20T11:00:09;8.50;99.90
21047;DHT22;10682;50.874;3.656;2022-11-20T11:02:58;8.50;99.90
21047;DHT22;10682;50.874;3.656;2022-11-20T11:05:47;8.50;99.90
21047;DHT22;10682;50.874;3.656;2022-11-20T11:08:18;8.50;99.90
21047;DHT22;10682;50.874;3.656;2022-11-20T11:10:57;8.50;99.90
21047;DHT22;10682;50.874;3.656;2022-11-20T11:13:28;8.50;99.90
21047;DHT22;10682;50.874;3.656;2022-11-20T11:15:56;8.50;99.90
21047;DHT22;10682;50.874;3.656;2022-11-20T11:20:55;8.40;99.90
21047;DHT22;10682;50.874;3.656;2022-11-20T11:23:39;8.30;99.90
21047;DHT22;10682;50.874;3.656;2022-11-20T11:26:19;8.20;99.90
21047;DHT22;10682;50.874;3.656;2022-11-20T11:28:57;8.10;99.90
21047;DHT22;10682;50.874;3.656;2022-11-20T11:31:33;8.10;99.90
21047;DHT22;10682;50.874;3.656;2022-11-20T11:34:14;8.10;99.90
21047;DHT22;10682;50.874;3.656;2022-11-20T11:36:55;8.00;99.90
21047;DHT22;10682;50.874;3.656;2022-11-20T11:39:23;7.90;99.90
21047;DHT22;10682;50.874;3.656;2022-11-20T11:41:51;7.90;99.90
21047;DHT22;10682;50.874;3.656;2022-11-20T11:44:20;7.90;99.90
21047;DHT22;10682;50.874;3.656;2022-11-20T11:55:36;8.00;99.90
21047;DHT22;10682;50.874;3.656;2022-11-20T12:04:07;7.90;99.90
21047;DHT22;10682;50.874;3.656;2022-11-20T12:06:47;7.90;99.90
21047;DHT22;10682;50.874;3.656;2022-11-20T12:09:20;7.90;99.90
21047;DHT22;10682;50.874;3.656;2022-11-20T12:12:00;7.90;99.90
21047;DHT22;10682;50.874;3.656;2022-11-20T12:14:37;8.00;99.90
21047;DHT22;10682;50.874;3.656;2022-11-20T12:17:09;8.00;99.90
21047;DHT22;10682;50.874;3.656;2022-11-20T12:19:37;8.00;99.90
21047;DHT22;10682;50.874;3.656;2022-11-20T12:22:59;8.00;99.90
21047;DHT22;10682;50.874;3.656;2022-11-20T12:25:34;8.00;99.90
21047;DHT22;10682;50.874;3.656;2022-11-20T12:28:06;8.00;99.90
21047;DHT22;10682;50.874;3.656;2022-11-20T12:30:53;8.00;99.90
21047;DHT22;10682;50.874;3.656;2022-11-20T12:36:50;8.00;99.90
21047;DHT22;10682;50.874;3.656;2022-11-20T12:39:35;8.00;99.90
21047;DHT22;10682;50.874;3.656;2022-11-20T12:42:31;8.10;99.90
21047;DHT22;10682;50.874;3.656;2022-11-20T12:51:34;8.10;99.90
21047;DHT22;10682;50.874;3.656;2022-11-20T13:00:17;8.10;99.90
21047;DHT22;10682;50.874;3.656;2022-11-20T13:08:34;8.20;99.90
21047;DHT22;10682;50.874;3.656;2022-11-20T13:11:14;8.20;99.90
21047;DHT22;10682;50.874;3.656;2022-11-20T13:16:52;8.30;99.90
21047;DHT22;10682;50.874;3.656;2022-11-20T13:19:24;8.30;99.90
21047;DHT22;10682;50.874;3.656;2022-11-20T13:21:51;8.40;99.90
21047;DHT22;10682;50.874;3.656;2022-11-20T13:26:46;8.50;99.90
21047;DHT22;10682;50.874;3.656;2022-11-20T13:29:18;8.50;99.90
21047;DHT22;10682;50.874;3.656;2022-11-20T13:31:47;8.50;99.90
21047;DHT22;10682;50.874;3.656;2022-11-20T13:34:27;8.50;99.90
21047;DHT22;10682;50.874;3.656;2022-11-20T13:36:56;8.50;99.90
21047;DHT22;10682;50.874;3.656;2022-11-20T13:39:35;8.50;99.90
21047;DHT22;10682;50.874;3.656;2022-11-20T13:42:22;8.60;99.90
21047;DHT22;10682;50.874;3.656;2022-11-20T13:44:55;8.60;99.90
21047;DHT22;10682;50.874;3.656;2022-11-20T13:47:28;8.50;99.90
21047;DHT22;10682;50.874;3.656;2022-11-20T13:49:58;8.50;99.90
21047;DHT22;10682;50.874;3.656;2022-11-20T13:55:50;8.50;99.90
21047;DHT22;10682;50.874;3.656;2022-11-20T13:58:49;8.50;99.90
21047;DHT22;10682;50.874;3.656;2022-11-20T14:03:45;8.60;99.90
21047;DHT22;10682;50.874;3.656;2022-11-20T14:06:41;8.70;99.90
21047;DHT22;10682;50.874;3.656;2022-11-20T14:09:24;8.80;99.90
21047;DHT22;10682;50.874;3.656;2022-11-20T14:11:58;8.90;99.90
21047;DHT22;10682;50.874;3.656;2022-11-20T14:14:26;9.00;99.90
21047;DHT22;10682;50.874;3.656;2022-11-20T14:17:09;9.00;99.90
21047;DHT22;10682;50.874;3.656;2022-11-20T14:19:50;9.00;99.90
21047;DHT22;10682;50.874;3.656;2022-11-20T14:22:24;9.00;99.90
21047;DHT22;10682;50.874;3.656;2022-11-20T14:27:41;9.20;99.90
21047;DHT22;10682;50.874;3.656;2022-11-20T14:32:43;9.20;99.90
21047;DHT22;10682;50.874;3.656;2022-11-20T14:35:20;9.30;99.90
21047;DHT22;10682;50.874;3.656;2022-11-20T14:37:52;9.30;99.90
21047;DHT22;10682;50.874;3.656;2022-11-20T14:42:50;9.40;99.90
21047;DHT22;10682;50.874;3.656;2022-11-20T14:45:18;9.40;99.90
21047;DHT22;10682;50.874;3.656;2022-11-20T14:47:46;9.40;99.90
21047;DHT22;10682;50.874;3.656;2022-11-20T14:50:20;9.50;99.90
21047;DHT22;10682;50.874;3.656;2022-11-20T14:52:51;9.60;99.90
21047;DHT22;10682;50.874;3.656;2022-11-20T14:55:36;9.60;99.90
21047;DHT22;10682;50.874;3.656;2022-11-20T14:58:20;9.70;99.90
21047;DHT22;10682;50.874;3.656;2022-11-20T15:00:57;9.70;99.90
21047;DHT22;10682;50.874;3.656;2022-11-20T15:03:33;9.70;99.90
21047;DHT22;10682;50.874;3.656;2022-11-20T15:06:05;9.80;99.90
21047;DHT22;10682;50.874;3.656;2022-11-20T15:08:34;9.80;99.90
21047;DHT22;10682;50.874;3.656;2022-11-20T15:11:02;9.80;99.90
21047;DHT22;10682;50.874;3.656;2022-11-20T15:13:37;9.90;99.90
21047;DHT22;10682;50.874;3.656;2022-11-20T15:16:18;9.90;99.90
21047;DHT22;10682;50.874;3.656;2022-11-20T15:18:47;9.90;99.90
21047;DHT22;10682;50.874;3.656;2022-11-20T15:21:16;10.00;99.90
21047;DHT22;10682;50.874;3.656;2022-11-20T15:23:44;10.00;99.90
21047;DHT22;10682;50.874;3.656;2022-11-20T15:26:13;10.00;99.90
21047;DHT22;10682;50.874;3.656;2022-11-20T15:28:46;10.00;99.90
21047;DHT22;10682;50.874;3.656;2022-11-20T15:31:19;9.90;99.90
21047;DHT22;10682;50.874;3.656;2022-11-20T15:33:48;9.90;99.90
21047;DHT22;10682;50.874;3.656;2022-11-20T15:36:15;9.80;99.90
21047;DHT22;10682;50.874;3.656;2022-11-20T15:38:42;9.70;99.90
21047;DHT22;10682;50.874;3.656;2022-11-20T15:41:11;9.60;99.90
21047;DHT22;10682;50.874;3.656;2022-11-20T15:43:38;9.60;99.90
21047;DHT22;10682;50.874;3.656;2022-11-20T15:46:10;9.50;99.90
21047;DHT22;10682;50.874;3.656;2022-11-20T15:48:42;9.40;99.90
21047;DHT22;10682;50.874;3.656;2022-11-20T15:54:17;9.30;99.90
21047;DHT22;10682;50.874;3.656;2022-11-20T15:56:49;9.30;99.90
21047;DHT22;10682;50.874;3.656;2022-11-20T15:59:18;9.30;99.90
21047;DHT22;10682;50.874;3.656;2022-11-20T16:01:46;9.30;99.90
21047;DHT22;10682;50.874;3.656;2022-11-20T16:04:15;9.30;99.90
21047;DHT22;10682;50.874;3.656;2022-11-20T16:06:43;9.30;99.90
21047;DHT22;10682;50.874;3.656;2022-11-20T16:09:10;9.30;99.90
21047;DHT22;10682;50.874;3.656;2022-11-20T16:11:37;9.30;99.90
21047;DHT22;10682;50.874;3.656;2022-11-20T16:14:05;9.30;99.90
21047;DHT22;10682;50.874;3.656;2022-11-20T16:16:51;9.20;99.90
21047;DHT22;10682;50.874;3.656;2022-11-20T16:19:18;9.20;99.90
21047;DHT22;10682;50.874;3.656;2022-11-20T16:21:46;9.10;99.90
21047;DHT22;10682;50.874;3.656;2022-11-20T16:24:15;9.10;99.90
21047;DHT22;10682;50.874;3.656;2022-11-20T16:26:42;9.00;99.90
21047;DHT22;10682;50.874;3.656;2022-11-20T16:29:09;9.00;99.90
21047;DHT22;10682;50.874;3.656;2022-11-20T16:31:36;9.00;99.90
21047;DHT22;10682;50.874;3.656;2022-11-20T16:34:05;8.90;99.90
21047;DHT22;10682;50.874;3.656;2022-11-20T16:36:41;8.90;99.90
21047;DHT22;10682;50.874;3.656;2022-11-20T16:39:10;8.90;99.90
21047;DHT22;10682;50.874;3.656;2022-11-20T16:41:38;8.80;99.90
21047;DHT22;10682;50.874;3.656;2022-11-20T16:44:09;8.80;99.90
21047;DHT22;10682;50.874;3.656;2022-11-20T16:46:37;8.70;99.90
21047;DHT22;10682;50.874;3.656;2022-11-20T16:49:13;8.70;99.90
21047;DHT22;10682;50.874;3.656;2022-11-20T16:51:40;8.70;99.90
21047;DHT22;10682;50.874;3.656;2022-11-20T16:54:09;8.60;99.90
21047;DHT22;10682;50.874;3.656;2022-11-20T16:56:43;8.60;99.90
21047;DHT22;10682;50.874;3.656;2022-11-20T16:59:13;8.50;99.90
21047;DHT22;10682;50.874;3.656;2022-11-20T17:01:40;8.50;99.90
21047;DHT22;10682;50.874;3.656;2022-11-20T17:04:09;8.50;99.90
21047;DHT22;10682;50.874;3.656;2022-11-20T17:06:38;8.40;99.90
21047;DHT22;10682;50.874;3.656;2022-11-20T17:09:10;8.40;99.90
21047;DHT22;10682;50.874;3.656;2022-11-20T17:11:37;8.40;99.90
21047;DHT22;10682;50.874;3.656;2022-11-20T17:14:05;8.30;99.90
21047;DHT22;10682;50.874;3.656;2022-11-20T17:16:36;8.30;99.90
21047;DHT22;10682;50.874;3.656;2022-11-20T17:19:03;8.30;99.90
21047;DHT22;10682;50.874;3.656;2022-11-20T17:21:32;8.30;99.90
21047;DHT22;10682;50.874;3.656;2022-11-20T17:24:03;8.40;99.90
21047;DHT22;10682;50.874;3.656;2022-11-20T17:26:32;8.40;99.90
21047;DHT22;10682;50.874;3.656;2022-11-20T17:29:05;8.40;99.90
21047;DHT22;10682;50.874;3.656;2022-11-20T17:31:36;8.40;99.90
21047;DHT22;10682;50.874;3.656;2022-11-20T17:34:07;8.40;99.90
21047;DHT22;10682;50.874;3.656;2022-11-20T17:36:36;8.30;99.90
21047;DHT22;10682;50.874;3.656;2022-11-20T17:39:15;8.30;99.90